Time;durP1;ratioP1;P1;durP2;ratioP2;P2;SDS_P1;SDS_P2;PMS_P1;PMS_P2;Temp;Humidity;BMP_temperature;BMP_pressure;BME280_temperature;BME280_humidity;BME280_pressure;Samples;Min_cycle;Max_cycle;Signal;HPM_P1;HPM_P2
2022/07/28 00:00:15;;;;;;;2.40;1.70;;;19.00;54.40;;;21.59;42.08;101966.94;5093853;28;20196;-62
2022/07/28 00:02:42;;;;;;;2.87;1.70;;;18.90;54.60;;;21.49;42.34;101966.56;5094394;28;20204;-60
2022/07/28 00:05:10;;;;;;;6.20;1.90;;;18.80;54.70;;;21.42;42.33;101965.78;5097471;28;20192;-58
2022/07/28 00:07:39;;;;;;;5.50;1.93;;;18.70;55.00;;;21.32;42.70;101965.44;5114452;28;20557;-60
2022/07/28 00:10:08;;;;;;;2.53;1.40;;;18.60;55.00;;;21.23;42.61;101972.09;5114374;28;20198;-60
2022/07/28 00:12:36;;;;;;;4.47;1.43;;;18.50;55.20;;;21.13;43.36;101966.41;5113977;28;20219;-60
2022/07/28 00:15:06;;;;;;;4.03;1.67;;;18.40;55.50;;;21.07;43.26;101971.75;5113125;28;20203;-61
2022/07/28 00:17:33;;;;;;;4.90;1.60;;;18.40;56.00;;;21.04;44.09;101969.50;5114073;28;20203;-61
2022/07/28 00:20:00;;;;;;;1.73;1.40;;;18.30;56.20;;;21.04;43.98;101972.19;5114323;27;20194;-61
2022/07/28 00:22:28;;;;;;;3.37;1.80;;;18.30;56.60;;;21.06;44.09;101960.22;5101176;27;20567;-61
2022/07/28 00:24:57;;;;;;;2.60;1.60;;;18.40;56.50;;;21.09;43.93;101959.81;5093618;28;20195;-61
2022/07/28 00:27:24;;;;;;;2.53;1.40;;;18.40;56.40;;;21.06;43.36;101959.44;5093741;28;20668;-61
2022/07/28 00:29:51;;;;;;;4.20;1.83;;;18.30;56.30;;;20.98;44.31;101963.13;5093796;28;20200;-63
2022/07/28 00:32:19;;;;;;;3.17;1.70;;;18.30;57.20;;;20.94;44.37;101965.41;5102807;28;20215;-61
2022/07/28 00:34:47;;;;;;;4.97;1.70;;;18.30;56.60;;;20.88;43.99;101963.59;5114095;28;20608;-61
2022/07/28 00:37:14;;;;;;;3.40;1.70;;;18.20;56.80;;;20.81;44.66;101967.31;5113834;28;20212;-61
2022/07/28 00:39:42;;;;;;;3.43;1.60;;;18.10;57.10;;;20.77;44.84;101966.94;5113895;28;20195;-61
2022/07/28 00:42:11;;;;;;;4.70;1.80;;;18.10;57.30;;;20.76;45.11;101969.78;5113565;28;20211;-60
2022/07/28 00:44:40;;;;;;;3.33;1.30;;;18.00;57.60;;;20.75;44.92;101968.97;5113917;28;20194;-62
2022/07/28 00:47:08;;;;;;;3.87;1.90;;;18.00;57.70;;;20.78;44.84;101967.72;5113375;28;20196;-61
2022/07/28 00:49:36;;;;;;;3.37;1.60;;;18.00;57.90;;;20.80;45.14;101966.47;5114035;28;20729;-62
2022/07/28 00:52:06;;;;;;;5.90;1.77;;;18.10;57.70;;;20.81;44.57;101957.44;5113539;28;20580;-61
2022/07/28 00:54:34;;;;;;;3.63;2.13;;;18.10;57.80;;;20.84;44.87;101967.72;5113942;28;20191;-61
2022/07/28 00:57:01;;;;;;;2.30;1.77;;;18.10;57.80;;;20.88;44.97;101965.44;5113763;28;20216;-62
2022/07/28 00:59:30;;;;;;;3.20;1.50;;;18.10;57.70;;;20.88;44.91;101962.75;5113568;28;20192;-62
2022/07/28 01:02:02;;;;;;;2.63;1.87;;;18.10;57.80;;;20.89;45.09;101961.72;5111679;28;20208;-61
2022/07/28 01:04:30;;;;;;;3.37;1.70;;;18.10;57.80;;;20.92;44.61;101963.97;5113748;28;20263;-60
2022/07/28 01:07:22;;;;;;;5.00;1.77;;;18.10;57.70;;;20.90;44.58;101971.38;5112651;28;20188;-59
2022/07/28 01:10:05;;;;;;;6.00;1.83;;;18.20;57.80;;;20.93;44.90;101976.31;5116258;28;20183;-62
2022/07/28 01:12:54;;;;;;;4.20;1.70;;;18.20;57.60;;;20.88;44.66;101968.09;5117586;28;20218;-62
2022/07/28 01:15:29;;;;;;;5.03;1.87;;;18.20;57.60;;;20.87;44.86;101966.47;5118002;28;20196;-62
2022/07/28 01:18:05;;;;;;;4.20;1.60;;;18.10;57.50;;;20.86;44.41;101971.00;5118277;27;20190;-62
2022/07/28 01:20:38;;;;;;;4.47;1.57;;;18.10;57.50;;;20.85;44.09;101968.53;5115584;28;20183;-62
2022/07/28 01:23:37;;;;;;;3.47;1.63;;;18.10;57.40;;;20.79;44.52;101969.38;5116447;28;20219;-61
2022/07/28 01:26:26;;;;;;;4.83;2.03;;;18.00;57.70;;;20.79;44.90;101966.69;5117497;28;20191;-62
2022/07/28 01:29:13;;;;;;;2.97;1.43;;;18.00;57.80;;;20.77;44.33;101966.94;5117487;28;20200;-62
2022/07/28 01:31:50;;;;;;;2.70;1.50;;;18.00;57.70;;;20.76;44.67;101967.13;5117319;28;20238;-61
2022/07/28 01:34:27;;;;;;;3.00;1.80;;;17.90;57.60;;;20.74;45.00;101966.50;5117778;28;20190;-61
2022/07/28 01:37:05;;;;;;;1.63;1.23;;;17.90;57.90;;;20.73;44.67;101964.84;5098825;28;20216;-61
2022/07/28 01:39:36;;;;;;;3.13;1.50;;;17.90;58.00;;;20.76;44.83;101959.09;5097029;28;20188;-60
2022/07/28 01:42:07;;;;;;;3.33;1.40;;;17.90;58.10;;;20.80;44.81;101954.97;5096694;28;20208;-62
2022/07/28 01:44:42;;;;;;;2.47;1.50;;;18.00;58.10;;;20.81;44.37;101960.09;5096899;28;20196;-61
2022/07/28 01:47:13;;;;;;;5.03;1.73;;;18.00;57.80;;;20.79;44.40;101950.66;5097003;28;20192;-62
2022/07/28 01:49:44;;;;;;;1.90;1.47;;;17.90;57.70;;;20.71;44.21;101951.69;5096806;28;20196;-61
2022/07/28 01:52:16;;;;;;;3.93;1.60;;;17.90;58.30;;;20.63;44.55;101943.91;5102714;28;20207;-61
2022/07/28 01:54:46;;;;;;;2.03;1.60;;;17.80;57.80;;;20.56;44.72;101947.63;5117265;28;20195;-61
2022/07/28 01:57:17;;;;;;;2.00;1.37;;;17.80;57.90;;;20.48;45.27;101942.50;5117191;28;20208;-60
2022/07/28 01:59:47;;;;;;;3.73;1.90;;;17.70;58.10;;;20.41;45.31;101944.38;5116921;27;20193;-61
2022/07/28 02:02:20;;;;;;;3.27;1.60;;;17.60;58.30;;;20.36;45.38;101941.50;5116948;28;20219;-62
2022/07/28 02:04:50;;;;;;;4.63;1.50;;;17.60;58.80;;;20.38;45.58;101945.63;5117019;28;20206;-60
2022/07/28 02:07:21;;;;;;;2.80;1.40;;;17.60;59.10;;;20.43;45.79;101943.13;5117125;28;20272;-60
2022/07/28 02:09:50;;;;;;;3.23;1.40;;;17.70;59.00;;;20.49;45.47;101941.50;5115618;28;20188;-60
2022/07/28 02:12:19;;;;;;;4.97;1.47;;;17.70;58.70;;;20.47;45.52;101928.31;5116512;28;20212;-60
2022/07/28 02:14:50;;;;;;;4.37;1.90;;;17.70;58.60;;;20.46;45.85;101936.56;5117226;28;20250;-59
2022/07/28 02:17:29;;;;;;;3.00;1.27;;;17.70;58.70;;;20.45;45.95;101924.19;5116579;28;20215;-60
2022/07/28 02:19:59;;;;;;;5.47;1.40;;;17.80;58.80;;;20.51;46.12;101929.53;5115964;28;20599;-60
2022/07/28 02:22:27;;;;;;;3.70;1.80;;;17.80;58.70;;;20.60;45.91;101928.28;5115634;28;20215;-61
2022/07/28 02:24:55;;;;;;;3.33;1.60;;;17.90;58.70;;;20.70;45.63;101935.84;5110289;28;20590;-62
2022/07/28 02:27:33;;;;;;;3.37;1.50;;;18.00;58.60;;;20.81;45.06;101932.50;5096628;28;20192;-62
2022/07/28 02:30:07;;;;;;;3.50;1.63;;;18.10;58.30;;;20.92;44.81;101931.84;5096214;28;20558;-61
2022/07/28 02:32:41;;;;;;;5.63;1.90;;;18.20;58.10;;;21.03;44.71;101930.34;5095694;28;20258;-61
2022/07/28 02:35:27;;;;;;;2.87;1.90;;;18.30;58.00;;;21.09;44.78;101933.03;5095946;28;20219;-62
2022/07/28 02:38:05;;;;;;;3.43;1.80;;;18.30;57.70;;;21.20;44.61;101935.03;5096003;28;20212;-61
2022/07/28 02:40:37;;;;;;;6.23;2.10;;;18.40;57.40;;;21.28;44.27;101929.41;5096015;28;20202;-62
2022/07/28 02:43:09;;;;;;;4.50;2.17;;;18.50;57.40;;;21.33;44.02;101929.59;5095833;28;20215;-61
2022/07/28 02:45:42;;;;;;;3.30;1.83;;;18.50;57.10;;;21.38;43.83;101934.28;5095873;28;20200;-62
2022/07/28 02:48:16;;;;;;;6.63;2.13;;;18.60;57.10;;;21.41;43.85;101931.19;5095687;28;20188;-62
2022/07/28 02:50:46;;;;;;;2.33;1.67;;;18.60;57.00;;;21.44;43.57;101936.94;5095347;28;20188;-62
2022/07/28 02:53:15;;;;;;;5.53;1.97;;;18.60;56.90;;;21.46;43.85;101929.53;5095875;28;20741;-62
2022/07/28 02:55:48;;;;;;;9.60;2.33;;;18.70;56.90;;;21.49;43.54;101929.06;5095679;28;20199;-61
2022/07/28 02:58:21;;;;;;;4.10;1.90;;;18.70;57.40;;;21.53;43.29;101932.97;5096366;28;20215;-61
2022/07/28 03:00:51;;;;;;;2.83;1.60;;;18.80;56.80;;;21.56;43.60;101940.56;5095065;28;20188;-61
2022/07/28 03:03:21;;;;;;;1.73;1.60;;;18.80;56.70;;;21.53;43.55;101946.38;5095499;28;20226;-59
2022/07/28 03:05:49;;;;;;;3.93;1.70;;;18.80;56.60;;;21.46;43.79;101940.22;5095445;28;20184;-60
2022/07/28 03:08:17;;;;;;;5.20;1.93;;;18.80;56.70;;;21.42;44.21;101944.38;5095052;28;20275;-61
2022/07/28 03:10:45;;;;;;;3.73;1.70;;;18.70;57.00;;;21.39;44.33;101939.47;5094940;28;20199;-59
2022/07/28 03:13:12;;;;;;;2.70;1.80;;;18.70;57.10;;;21.44;44.07;101944.97;5095017;28;20208;-61
2022/07/28 03:15:40;;;;;;;5.57;1.93;;;18.70;57.10;;;21.48;43.80;101954.22;5096537;28;20193;-61
2022/07/28 03:18:08;;;;;;;3.30;1.70;;;18.70;57.00;;;21.51;43.75;101948.41;5095248;28;20209;-60
2022/07/28 03:20:37;;;;;;;3.73;1.60;;;18.70;57.00;;;21.53;43.84;101956.25;5095079;28;20188;-62
2022/07/28 03:23:04;;;;;;;5.13;1.77;;;18.70;56.90;;;21.49;43.83;101961.22;5094906;28;20201;-59
2022/07/28 03:25:40;;;;;;;2.47;1.30;;;18.70;56.60;;;21.37;43.79;101957.59;5094975;28;20222;-62
2022/07/28 03:28:16;;;;;;;3.43;1.80;;;18.60;56.60;;;21.28;43.58;101969.59;5094497;28;20196;-60
2022/07/28 03:30:52;;;;;;;3.63;1.67;;;18.50;56.90;;;21.23;44.32;101966.72;5095692;28;20214;-60
2022/07/28 03:33:20;;;;;;;4.43;1.63;;;18.40;57.10;;;21.22;44.10;101965.09;5094215;28;20598;-60
2022/07/28 03:35:52;;;;;;;3.03;1.90;;;18.40;57.30;;;21.20;44.36;101967.19;5094616;28;20192;-60
2022/07/28 03:38:23;;;;;;;4.03;1.80;;;18.30;57.30;;;21.17;43.86;101962.25;5094231;28;20224;-61
2022/07/28 03:40:55;;;;;;;2.03;1.67;;;18.30;57.40;;;21.14;43.83;101970.69;5094157;28;20569;-60
2022/07/28 03:43:24;;;;;;;3.17;1.73;;;18.30;57.50;;;;;;5094556;28;20199;-61
2022/07/28 03:45:54;;;;;;;3.77;2.13;;;18.20;57.80;;;21.05;44.54;101974.66;5094817;28;20199;-60
2022/07/28 03:48:28;;;;;;;3.23;2.07;;;18.20;57.90;;;21.04;44.36;101978.31;5095370;28;20188;-62
2022/07/28 03:50:57;;;;;;;2.40;1.90;;;18.10;58.20;;;21.07;44.39;101977.13;5093751;28;20197;-61
2022/07/28 03:53:27;;;;;;;2.93;1.60;;;18.20;58.30;;;21.13;44.31;101987.81;5094310;28;20196;-60
2022/07/28 03:55:55;;;;;;;3.33;1.90;;;18.20;58.20;;;21.17;44.58;101981.00;5093329;28;20192;-60
2022/07/28 03:58:26;;;;;;;2.97;2.27;;;18.20;58.50;;;21.19;44.52;101986.13;5094003;28;20215;-61
2022/07/28 04:00:56;;;;;;;6.50;2.40;;;18.30;57.80;;;21.16;44.58;101979.34;5093611;28;20196;-61
2022/07/28 04:03:25;;;;;;;2.90;1.80;;;18.20;57.80;;;21.14;44.40;101978.72;5095179;28;20188;-61
2022/07/28 04:06:12;;;;;;;3.03;1.93;;;18.20;57.80;;;21.08;43.98;101979.59;5094144;28;20676;-60
2022/07/28 04:08:39;;;;;;;5.77;2.10;;;18.20;58.40;;;21.07;44.17;101988.66;5094084;28;20562;-63
2022/07/28 04:11:07;;;;;;;5.30;1.83;;;18.20;58.10;;;21.07;44.80;101983.28;5093174;28;20195;-61
2022/07/28 04:13:35;;;;;;;4.13;2.17;;;18.10;58.30;;;;;;5093649;28;20580;-61
2022/07/28 04:16:04;;;;;;;4.60;2.20;;;18.10;58.50;;;21.14;44.77;101972.53;5093522;28;20239;-61
2022/07/28 04:18:32;;;;;;;5.50;2.27;;;18.20;58.70;;;21.18;44.89;101979.94;5094125;28;20220;-59
2022/07/28 04:20:59;;;;;;;2.90;2.07;;;18.20;58.40;;;21.20;44.63;101972.53;5094243;28;20264;-60
2022/07/28 04:23:29;;;;;;;5.50;1.97;;;18.20;58.10;;;21.19;44.54;101978.09;5093907;28;20192;-62
2022/07/28 04:25:57;;;;;;;2.97;1.40;;;18.20;58.10;;;21.16;44.22;101976.66;5093846;28;20194;-63
2022/07/28 04:28:24;;;;;;;2.47;1.77;;;18.20;58.00;;;21.15;44.19;101974.19;5093353;28;20653;-61
2022/07/28 04:30:52;;;;;;;3.40;2.03;;;18.20;58.10;;;21.14;44.62;101978.72;5093148;28;20241;-60
2022/07/28 04:33:19;;;;;;;5.43;3.03;;;18.20;58.40;;;21.18;44.20;101990.66;5093548;28;20192;-61
2022/07/28 04:35:51;;;;;;;5.00;1.73;;;18.20;58.80;;;21.19;44.58;101984.28;5094650;28;20222;-62
2022/07/28 04:38:19;;;;;;;4.60;2.20;;;18.20;58.30;;;21.22;44.88;101983.03;5093396;28;20218;-61
2022/07/28 04:40:48;;;;;;;5.03;2.53;;;18.30;58.30;;;21.26;44.16;101977.03;5093204;28;20192;-61
2022/07/28 04:43:16;;;;;;;6.07;2.67;;;18.30;58.20;;;21.32;44.57;101983.41;5092689;28;20216;-62
2022/07/28 04:45:45;;;;;;;9.70;2.30;;;18.40;58.10;;;21.36;44.63;101977.38;5093376;28;20226;-61
2022/07/28 04:48:21;;;;;;;5.67;2.67;;;18.40;58.00;;;21.39;44.04;101984.19;5093254;28;20188;-61
2022/07/28 04:50:51;;;;;;;5.07;2.07;;;18.50;58.00;;;21.42;44.37;101978.38;5093034;28;20188;-60
2022/07/28 04:53:19;;;;;;;5.90;2.07;;;18.50;57.80;;;21.44;44.32;101979.00;5094397;28;20185;-61
2022/07/28 04:55:50;;;;;;;4.87;2.07;;;18.50;57.60;;;21.47;43.73;101982.06;5093622;28;20198;-61
2022/07/28 04:58:18;;;;;;;6.63;2.57;;;18.50;57.60;;;21.52;43.92;101976.88;5092980;28;20265;-61
2022/07/28 05:00:47;;;;;;;5.80;2.10;;;18.60;57.70;;;21.58;44.20;101970.63;5092701;28;20329;-61
2022/07/28 05:03:17;;;;;;;6.17;2.40;;;18.70;57.50;;;21.64;43.58;101973.47;5093251;28;20757;-61
2022/07/28 05:05:45;;;;;;;3.90;2.27;;;18.70;57.30;;;21.64;43.32;101973.47;5093052;28;20197;-62
2022/07/28 05:08:22;;;;;;;4.77;2.50;;;18.70;57.10;;;21.67;43.73;101968.53;5093140;28;20181;-61
2022/07/28 05:10:55;;;;;;;5.67;2.67;;;18.70;57.10;;;21.76;43.19;101974.44;5111291;28;20196;-62
2022/07/28 05:13:23;;;;;;;6.03;2.20;;;18.80;57.00;;;21.86;42.92;101974.81;5113221;28;20280;-61
2022/07/28 05:15:55;;;;;;;2.60;2.13;;;18.90;56.60;;;21.93;42.96;101971.03;5113388;28;20668;-62
2022/07/28 05:18:22;;;;;;;5.93;2.33;;;18.90;56.40;;;22.00;42.33;101974.47;5113176;28;20290;-60
2022/07/28 05:20:50;;;;;;;6.27;2.40;;;19.00;56.40;;;22.07;42.40;101969.06;5112973;28;20184;-61
2022/07/28 05:23:17;;;;;;;4.97;2.20;;;19.10;56.20;;;22.11;42.39;101976.44;5113859;28;20208;-62
2022/07/28 05:25:45;;;;;;;3.80;2.23;;;19.10;55.90;;;22.11;42.30;101968.41;5111493;28;20194;-62
2022/07/28 05:28:14;;;;;;;3.60;2.10;;;19.20;56.10;;;22.13;42.50;101973.56;5112640;28;20196;-58
2022/07/28 05:30:43;;;;;;;5.23;1.90;;;19.20;55.90;;;22.14;42.47;101975.19;5113019;28;20183;-62
2022/07/28 05:33:13;;;;;;;5.30;2.20;;;19.20;55.80;;;22.20;41.90;101975.13;5112814;28;20235;-61
2022/07/28 05:35:40;;;;;;;4.17;2.20;;;19.20;55.30;;;22.14;41.83;101975.19;5111911;28;20195;-61
2022/07/28 05:38:08;;;;;;;5.77;2.30;;;19.30;55.20;;;22.05;42.19;101976.50;5112965;28;20215;-62
2022/07/28 05:40:38;;;;;;;6.67;2.53;;;19.20;55.40;;;21.99;42.41;101980.03;5112628;28;20208;-61
2022/07/28 05:43:06;;;;;;;3.47;1.97;;;19.20;55.70;;;21.89;43.04;101977.88;5111066;28;20215;-61
2022/07/28 05:45:34;;;;;;;7.13;2.20;;;19.20;55.70;;;21.81;42.67;101982.66;5112849;28;20180;-62
2022/07/28 05:48:02;;;;;;;3.30;2.10;;;19.10;55.80;;;21.79;43.03;101976.69;5113102;28;20257;-61
2022/07/28 05:50:29;;;;;;;5.17;3.27;;;19.00;56.20;;;21.79;43.19;101971.31;5112928;28;20188;-62
2022/07/28 05:52:57;;;;;;;4.50;2.17;;;19.00;56.60;;;21.82;43.19;101982.41;5112940;28;20219;-60
2022/07/28 05:55:25;;;;;;;4.20;2.23;;;19.00;56.60;;;21.91;43.24;101993.75;5114608;28;20200;-63
2022/07/28 05:57:53;;;;;;;3.63;2.00;;;19.00;56.80;;;22.03;43.13;101992.00;5116860;28;20210;-62
2022/07/28 06:00:22;;;;;;;1.50;1.40;;;19.10;56.70;;;22.17;42.25;101997.03;5115404;28;20196;-61
2022/07/28 06:02:51;;;;;;;13.07;8.80;;;19.20;56.00;;;22.29;42.67;101994.44;5117044;28;20286;-61
2022/07/28 06:05:20;;;;;;;4.97;2.93;;;19.30;56.10;;;22.42;42.06;101998.84;5117249;28;20188;-61
2022/07/28 06:07:50;;;;;;;5.13;2.57;;;19.40;55.90;;;22.46;42.00;101995.53;5116565;28;20188;-61
2022/07/28 06:10:20;;;;;;;2.60;2.10;;;19.40;55.70;;;22.48;42.12;101997.97;5117246;27;20192;-62
2022/07/28 06:12:52;;;;;;;3.77;2.20;;;19.40;55.80;;;22.51;42.34;101998.34;5117388;28;20214;-61
2022/07/28 06:15:21;;;;;;;3.20;2.00;;;19.50;55.80;;;22.58;41.80;101996.41;5114333;28;20198;-61
2022/07/28 06:17:54;;;;;;;4.93;2.47;;;19.50;55.60;;;22.68;42.00;101998.59;5116138;28;20274;-62
2022/07/28 06:20:24;;;;;;;3.67;2.10;;;19.60;55.40;;;22.80;41.35;102007.56;5116126;28;20636;-61
2022/07/28 06:22:54;;;;;;;4.13;1.90;;;19.70;55.00;;;22.87;40.78;102009.13;5115925;28;20211;-60
2022/07/28 06:25:24;;;;;;;3.07;2.20;;;19.80;54.50;;;22.92;40.94;102006.59;5115918;28;20210;-61
2022/07/28 06:27:54;;;;;;;8.57;2.67;;;19.80;54.40;;;22.95;40.64;102015.25;5115275;28;20195;-61
2022/07/28 06:30:22;;;;;;;5.17;2.13;;;19.90;54.20;;;22.99;40.55;102013.78;5116017;27;20192;-61
2022/07/28 06:32:52;;;;;;;3.93;2.40;;;19.90;54.10;;;23.01;40.45;102004.41;5113483;28;20219;-61
2022/07/28 06:35:19;;;;;;;4.90;2.00;;;19.90;54.20;;;23.08;40.51;102007.88;5115395;28;20282;-62
2022/07/28 06:37:49;;;;;;;7.40;2.53;;;20.00;54.30;;;23.16;40.66;102012.91;5115608;28;20230;-62
2022/07/28 06:40:18;;;;;;;2.97;2.17;;;20.10;54.10;;;23.24;40.20;102014.47;5115317;28;20196;-61
2022/07/28 06:42:46;;;;;;;2.50;1.83;;;20.10;53.60;;;23.26;39.46;102002.47;5114873;28;20218;-62
2022/07/28 06:45:15;;;;;;;2.43;1.30;;;20.20;53.20;;;23.32;39.48;102006.13;5115243;28;20544;-62
2022/07/28 06:47:48;;;;;;;5.07;1.80;;;20.20;52.50;;;23.32;39.26;102004.22;5113436;28;20282;-62
2022/07/28 06:50:17;;;;;;;4.83;1.20;;;20.20;51.90;;;23.33;38.49;102007.75;5115235;28;20199;-61
2022/07/28 06:52:51;;;;;;;3.50;1.90;;;20.20;50.90;;;23.33;38.38;102002.34;5114595;28;20750;-62
2022/07/28 06:55:19;;;;;;;2.93;1.87;;;20.20;51.20;;;23.37;38.50;102007.09;5115174;28;20698;-61
2022/07/28 06:57:47;;;;;;;6.17;1.70;;;20.20;51.50;;;23.47;38.01;102014.59;5115117;28;20223;-62
2022/07/28 07:00:15;;;;;;;4.13;1.83;;;20.30;50.90;;;23.59;37.98;102002.03;5115573;28;20198;-62
2022/07/28 07:02:42;;;;;;;3.30;1.60;;;20.30;50.90;;;23.73;37.30;102019.59;5115067;28;20657;-63
2022/07/28 07:05:12;;;;;;;6.30;2.00;;;20.40;50.10;;;23.83;37.13;102014.47;5113791;28;20270;-62
2022/07/28 07:07:41;;;;;;;6.03;1.27;;;20.50;50.20;;;23.96;37.15;102019.63;5113905;28;20263;-62
2022/07/28 07:10:10;;;;;;;3.47;1.40;;;20.60;49.70;;;24.05;36.58;102023.66;5114954;28;20188;-61
2022/07/28 07:12:38;;;;;;;2.07;1.40;;;20.70;49.40;;;24.14;36.17;102022.28;5108291;28;20223;-63
2022/07/28 07:15:08;;;;;;;2.20;1.70;;;20.70;49.40;;;24.25;36.23;102023.34;5109053;28;20204;-61
2022/07/28 07:17:36;;;;;;;3.20;1.20;;;20.80;49.00;;;24.33;35.87;102020.31;5114790;28;20215;-62
2022/07/28 07:20:15;;;;;;;2.70;1.40;;;20.90;48.50;;;24.42;35.64;102015.38;5100073;28;20892;-63
2022/07/28 07:22:46;;;;;;;4.67;1.60;;;20.90;48.50;;;24.52;35.19;102018.31;5109195;28;20225;-62
2022/07/28 07:25:17;;;;;;;4.77;2.20;;;21.00;47.90;;;24.60;35.36;102020.66;5094059;28;20563;-61
2022/07/28 07:27:45;;;;;;;5.90;3.23;;;21.10;48.10;;;24.71;35.21;102028.72;5098428;28;20219;-61
2022/07/28 07:30:16;;;;;;;8.23;7.23;;;21.20;48.80;;;24.87;34.80;102021.81;5100322;28;20579;-60
2022/07/28 07:32:44;;;;;;;4.30;2.40;;;21.20;47.80;;;25.01;34.73;102025.88;5092708;27;20224;-60
2022/07/28 07:35:11;;;;;;;3.37;2.20;;;21.40;47.60;;;25.14;34.28;102022.91;5094057;28;20188;-59
2022/07/28 07:37:39;;;;;;;2.73;1.67;;;21.50;47.50;;;25.14;34.06;102017.53;5094571;28;20208;-63
2022/07/28 07:40:09;;;;;;;10.57;6.87;;;21.60;46.30;;;25.08;34.21;102017.66;5104793;28;20528;-61
2022/07/28 07:42:37;;;;;;;2.80;1.80;;;21.70;46.80;;;25.04;34.34;102017.31;5098579;28;20216;-62
2022/07/28 07:45:06;;;;;;;10.43;2.83;;;21.70;47.00;;;25.07;34.16;102016.84;5105582;28;20293;-60
2022/07/28 07:47:34;;;;;;;8.10;4.20;;;21.70;46.40;;;25.17;33.79;102011.66;5109364;28;20196;-62
2022/07/28 07:50:02;;;;;;;5.57;2.73;;;21.70;46.30;;;25.32;34.19;102014.63;5105544;28;20196;-62
2022/07/28 07:52:31;;;;;;;2.40;1.97;;;21.80;46.30;;;25.49;33.46;101998.53;5105061;28;20216;-60
2022/07/28 07:54:58;;;;;;;3.20;1.83;;;21.90;46.20;;;25.63;33.48;102004.44;5107559;28;20188;-62
2022/07/28 07:57:28;;;;;;;1.40;1.30;;;22.00;46.30;;;25.74;33.28;102003.56;5113671;28;20188;-61
2022/07/28 07:59:55;;;;;;;2.67;1.83;;;22.10;45.70;;;25.84;33.15;102011.84;5113992;28;20199;-62
2022/07/28 08:02:23;;;;;;;3.37;1.70;;;22.10;45.40;;;25.95;33.30;102008.22;5099695;28;20762;-62
2022/07/28 08:04:50;;;;;;;3.07;1.40;;;22.30;45.50;;;26.05;32.69;102003.00;5101779;28;20283;-62
2022/07/28 08:07:18;;;;;;;3.63;1.60;;;22.40;44.70;;;26.17;32.71;102006.47;5100912;28;20507;-62
2022/07/28 08:09:48;;;;;;;2.97;1.53;;;22.50;44.70;;;26.25;31.18;102018.72;5098103;28;20212;-62
2022/07/28 08:12:16;;;;;;;2.57;1.07;;;22.60;42.90;;;26.18;31.45;102010.78;5094643;28;20723;-62
2022/07/28 08:14:53;;;;;;;3.90;1.37;;;22.70;43.20;;;26.17;31.85;102017.28;5093991;28;20184;-62
2022/07/28 08:17:20;;;;;;;1.87;1.17;;;22.70;43.60;;;26.12;32.10;102015.31;5094828;28;20188;-62
2022/07/28 08:19:52;;;;;;;1.70;0.83;;;22.70;43.00;;;26.04;31.99;102012.16;5096446;28;20184;-62
2022/07/28 08:22:20;;;;;;;2.00;1.07;;;22.70;42.90;;;25.91;31.08;102013.28;5122249;27;20211;-62
2022/07/28 08:24:47;;;;;;;2.30;1.20;;;22.70;42.10;;;25.81;31.30;102012.31;5101745;28;20192;-62
2022/07/28 08:27:18;;;;;;;3.67;1.07;;;22.60;42.30;;;25.71;32.18;102012.97;5107690;28;20199;-61
2022/07/28 08:29:45;;;;;;;3.37;1.40;;;22.60;42.50;;;25.67;31.67;102017.22;5096797;28;20196;-62
2022/07/28 08:32:14;;;;;;;2.83;1.00;;;22.50;41.50;;;25.52;29.55;102004.28;5110289;28;20215;-62
2022/07/28 08:34:42;;;;;;;2.07;1.20;;;22.50;38.80;;;25.46;30.91;101999.81;5093993;28;20189;-61
2022/07/28 08:37:09;;;;;;;2.27;1.00;;;22.40;40.30;;;25.48;30.97;102008.50;5103625;28;20200;-62
2022/07/28 08:39:37;;;;;;;3.90;0.90;;;22.40;40.70;;;25.75;31.29;102010.56;5098850;28;20213;-62
2022/07/28 08:42:10;;;;;;;2.53;1.50;;;22.40;41.10;;;25.99;30.59;102003.97;5094701;28;20208;-61
2022/07/28 08:44:46;;;;;;;2.90;1.70;;;22.50;41.60;;;26.22;30.57;102003.81;5095505;28;20191;-62
2022/07/28 08:47:18;;;;;;;6.73;5.97;;;22.60;41.70;;;26.46;30.19;101999.84;5092193;28;20206;-62
2022/07/28 08:49:48;;;;;;;4.70;2.83;;;22.80;41.60;;;26.65;29.92;102003.91;5107234;28;20367;-62
2022/07/28 08:52:20;;;;;;;2.37;1.50;;;22.90;41.40;;;26.62;29.50;101998.19;5101826;28;20216;-60
2022/07/28 08:54:50;;;;;;;4.00;1.20;;;23.00;39.80;;;26.56;29.32;101997.31;5107042;28;20196;-62
2022/07/28 08:57:24;;;;;;;4.40;1.50;;;23.10;40.40;;;26.47;29.81;102006.91;5103306;28;20703;-62
2022/07/28 08:59:52;;;;;;;4.17;1.17;;;23.10;39.30;;;26.41;29.15;102007.88;5113020;28;20238;-64
2022/07/28 09:02:24;;;;;;;3.37;1.33;;;23.10;38.90;;;26.32;29.49;102003.97;5099116;28;20209;-62
2022/07/28 09:04:54;;;;;;;1.97;1.53;;;23.10;39.00;;;26.36;29.54;102005.13;5093058;28;20750;-62
2022/07/28 09:07:23;;;;;;;2.13;1.07;;;23.10;39.40;;;26.82;29.53;102001.19;5092632;28;20560;-61
2022/07/28 09:09:51;;;;;;;3.50;1.10;;;23.10;39.60;;;27.43;28.47;102000.03;5107617;28;20188;-61
2022/07/28 09:12:23;;;;;;;1.03;0.90;;;23.30;39.50;;;27.82;28.15;101997.94;5092928;28;20227;-62
2022/07/28 09:14:53;;;;;;;4.27;1.57;;;23.50;39.10;;;27.96;27.90;101999.13;5094030;28;20230;-62
2022/07/28 09:17:22;;;;;;;3.10;2.30;;;23.70;38.60;;;28.13;27.90;101994.41;5096624;28;20192;-61
2022/07/28 09:19:50;;;;;;;3.10;1.60;;;23.90;38.90;;;28.39;27.58;101998.94;5094628;28;20203;-62
2022/07/28 09:22:17;;;;;;;1.27;0.90;;;24.10;38.40;;;28.56;27.09;101998.75;5109024;28;20212;-61
2022/07/28 09:24:45;;;;;;;6.07;1.50;;;24.30;37.80;;;28.58;26.86;101986.56;5096742;28;20660;-61
2022/07/28 09:27:14;;;;;;;2.50;1.60;;;24.40;37.20;;;28.56;26.99;101993.31;5112941;28;20192;-61
2022/07/28 09:29:48;;;;;;;2.27;1.33;;;24.50;37.30;;;28.49;27.45;101992.75;5101025;28;20203;-61
2022/07/28 09:32:18;;;;;;;3.20;1.80;;;24.60;37.40;;;28.38;27.39;101999.19;5096707;28;20224;-62
2022/07/28 09:34:49;;;;;;;2.17;0.90;;;24.60;37.30;;;28.21;27.72;101996.66;5105812;28;20203;-61
2022/07/28 09:37:20;;;;;;;2.10;1.30;;;24.60;37.10;;;28.09;27.54;101991.44;5116623;28;20774;-61
2022/07/28 09:39:58;;;;;;;2.10;1.10;;;24.50;37.00;;;28.05;27.86;101987.59;5116477;28;20298;-61
2022/07/28 09:42:45;;;;;;;2.07;1.23;;;24.40;36.90;;;28.92;26.96;101992.44;5116706;28;20227;-62
2022/07/28 09:45:13;;;;;;;3.87;1.17;;;24.50;37.00;;;30.31;25.33;101986.59;5117711;28;20194;-61
2022/07/28 09:48:09;;;;;;;5.30;3.03;;;24.80;37.20;;;30.91;24.50;101987.53;5116412;28;20195;-62
2022/07/28 09:50:40;;;;;;;1.77;1.37;;;25.40;36.40;;;30.94;24.72;101982.38;5114029;28;20192;-62
2022/07/28 09:53:23;;;;;;;2.50;1.00;;;25.60;35.40;;;30.65;24.68;101973.22;5116958;28;20222;-62
2022/07/28 09:55:57;;;;;;;2.53;1.80;;;25.90;34.90;;;31.14;24.45;101986.88;5098743;28;20201;-61
2022/07/28 09:58:25;;;;;;;3.50;1.23;;;26.00;34.80;;;31.93;23.64;101978.38;5116422;28;20207;-61
2022/07/28 10:01:04;;;;;;;2.67;1.40;;;26.30;34.70;;;32.19;22.85;101981.75;5115927;28;20240;-62
2022/07/28 10:03:35;;;;;;;1.57;1.40;;;26.60;33.60;;;31.91;23.80;101981.41;5116064;28;20670;-61
2022/07/28 10:06:09;;;;;;;1.90;1.37;;;26.80;33.40;;;31.40;23.60;101983.69;5114859;28;20184;-62
2022/07/28 10:08:43;;;;;;;1.80;1.13;;;26.90;32.80;;;30.77;23.85;101979.97;5114163;27;20655;-62
2022/07/28 10:11:13;;;;;;;4.23;2.63;;;26.80;32.60;;;30.28;24.95;101979.03;5114048;28;20203;-61
2022/07/28 10:13:59;;;;;;;1.53;1.30;;;26.60;32.90;;;29.77;25.70;101985.59;5115818;28;20198;-62
2022/07/28 10:16:30;;;;;;;3.07;1.50;;;26.40;33.10;;;29.36;25.67;101985.53;5116007;28;20649;-62
2022/07/28 10:19:00;;;;;;;2.40;1.47;;;26.10;33.30;;;29.01;25.79;101979.16;5114664;28;20212;-62
2022/07/28 10:21:35;;;;;;;2.50;1.73;;;25.90;33.70;;;29.26;26.11;101982.78;5115623;28;20212;-62
2022/07/28 10:24:06;;;;;;;2.87;1.23;;;25.70;34.50;;;30.63;24.90;101981.66;5103669;28;20505;-62
2022/07/28 10:26:43;;;;;;;2.63;1.40;;;25.80;35.00;;;31.13;23.80;101974.38;5095072;28;20197;-62